Time;durP1;ratioP1;P1;durP2;ratioP2;P2;SDS_P1;SDS_P2;PMS_P1;PMS_P2;Temp;Humidity;BMP_temperature;BMP_pressure;BME280_temperature;BME280_humidity;BME280_pressure;Samples;Min_cycle;Max_cycle;Signal;HPM_P1;HPM_P2
2021/12/09 00:00:31;;;;;;;18.63;17.63;;;4.80;92.50;;;;;;5054864;28;20203;-72
2021/12/09 00:03:04;;;;;;;17.63;16.55;;;4.90;92.50;;;;;;5054368;28;20207;-72
2021/12/09 00:05:32;;;;;;;17.80;16.80;;;4.90;93.60;;;;;;5054452;28;20618;-72
2021/12/09 00:08:00;;;;;;;17.98;16.67;;;5.00;93.00;;;;;;5054547;28;20200;-72
2021/12/09 00:10:27;;;;;;;18.20;17.10;;;5.00;92.10;;;;;;5054225;28;20617;-72
2021/12/09 00:12:54;;;;;;;17.90;16.75;;;4.90;92.10;;;;;;5053669;28;20192;-72
2021/12/09 00:15:21;;;;;;;17.85;16.88;;;5.00;92.20;;;;;;5054207;28;20239;-72
2021/12/09 00:17:48;;;;;;;18.15;17.05;;;4.90;92.10;;;;;;5054202;28;20201;-72
2021/12/09 00:20:15;;;;;;;18.67;17.67;;;4.90;92.20;;;;;;5054142;28;20200;-72
2021/12/09 00:22:42;;;;;;;16.77;15.73;;;4.90;91.30;;;;;;5053836;28;20239;-72
2021/12/09 00:25:11;;;;;;;69.68;20.10;;;4.80;94.90;;;;;;5053962;28;20195;-72
2021/12/09 00:27:38;;;;;;;16.77;15.82;;;4.70;95.70;;;;;;5054133;28;20197;-72
2021/12/09 00:30:05;;;;;;;17.35;16.20;;;4.70;93.40;;;;;;5053980;28;20199;-71
2021/12/09 00:32:32;;;;;;;18.15;17.15;;;4.80;92.80;;;;;;5053837;28;20196;-72
2021/12/09 00:34:59;;;;;;;17.70;16.67;;;4.70;92.10;;;;;;5053526;28;20220;-72
2021/12/09 00:37:32;;;;;;;18.65;17.65;;;4.70;92.30;;;;;;5053845;28;20228;-73
2021/12/09 00:39:59;;;;;;;17.95;16.90;;;4.60;91.40;;;;;;5053314;28;20254;-72
2021/12/09 00:42:28;;;;;;;19.15;17.70;;;4.50;92.00;;;;;;5053697;28;20205;-73
2021/12/09 00:44:56;;;;;;;17.60;16.70;;;4.50;92.90;;;;;;5053018;28;20220;-73
2021/12/09 00:47:24;;;;;;;17.48;16.48;;;4.50;95.40;;;;;;5053689;28;20574;-72
2021/12/09 00:49:53;;;;;;;17.63;16.63;;;4.50;96.00;;;;;;5053673;28;20547;-73
2021/12/09 00:52:22;;;;;;;325.45;47.83;;;4.60;97.00;;;;;;5053440;28;20639;-73
2021/12/09 00:54:48;;;;;;;385.05;54.65;;;4.60;97.30;;;;;;5053097;28;20239;-73
2021/12/09 00:57:15;;;;;;;17.55;16.55;;;4.60;96.50;;;;;;5053535;28;20558;-73
2021/12/09 00:59:44;;;;;;;17.38;16.30;;;4.70;96.60;;;;;;5053362;28;20200;-72
2021/12/09 01:02:12;;;;;;;17.02;16.05;;;4.70;95.40;;;;;;5053338;28;20200;-73
2021/12/09 01:04:39;;;;;;;18.13;17.13;;;4.60;95.00;;;;;;5053169;28;20305;-73
2021/12/09 01:07:07;;;;;;;17.88;16.63;;;4.70;94.70;;;;;;5053354;28;20189;-72
2021/12/09 01:09:34;;;;;;;59.45;20.55;;;4.60;94.50;;;;;;5053343;28;20204;-73
2021/12/09 01:12:01;;;;;;;16.83;15.77;;;4.60;94.40;;;;;;5053198;28;20215;-73
2021/12/09 01:14:28;;;;;;;28.98;17.05;;;4.60;94.70;;;;;;5052836;28;20212;-73
2021/12/09 01:16:56;;;;;;;16.98;15.88;;;4.60;94.20;;;;;;5053023;28;20819;-73
2021/12/09 01:19:23;;;;;;;39.17;18.80;;;4.60;97.30;;;;;;5052974;28;20193;-72
2021/12/09 01:21:51;;;;;;;1192.43;144.65;;;4.60;97.80;;;;;;5052853;28;20200;-73
2021/12/09 01:24:17;;;;;;;22.25;16.85;;;4.60;97.40;;;;;;5052225;28;20220;-73
2021/12/09 01:26:46;;;;;;;16.42;15.32;;;4.70;99.20;;;;;;5053060;28;20553;-73
2021/12/09 01:29:17;;;;;;;17.02;15.98;;;4.70;99.70;;;;;;5052838;28;20681;-73
2021/12/09 01:31:53;;;;;;;16.58;15.65;;;4.70;98.80;;;;;;5052763;28;20684;-73
2021/12/09 01:34:22;;;;;;;17.08;15.93;;;4.70;97.20;;;;;;5052518;28;20220;-73
2021/12/09 01:36:50;;;;;;;142.45;26.30;;;4.60;96.50;;;;;;5052640;28;20223;-73
2021/12/09 01:39:17;;;;;;;17.30;16.25;;;4.60;96.00;;;;;;5052535;28;20232;-73
2021/12/09 01:41:44;;;;;;;42.08;19.05;;;4.60;98.10;;;;;;5052620;28;20208;-73
2021/12/09 01:44:13;;;;;;;51.05;19.08;;;4.60;96.50;;;;;;5052017;28;20587;-73
2021/12/09 01:46:40;;;;;;;17.73;16.73;;;4.60;96.80;;;;;;5052810;28;20215;-72
2021/12/09 01:49:08;;;;;;;18.42;17.13;;;4.60;97.80;;;;;;5052588;28;20294;-72
2021/12/09 01:51:36;;;;;;;17.65;16.60;;;4.70;96.50;;;;;;5052575;28;20535;-72
2021/12/09 01:54:04;;;;;;;17.08;16.17;;;4.60;96.80;;;;;;5052369;28;20213;-72
2021/12/09 01:56:31;;;;;;;17.90;16.85;;;4.60;95.40;;;;;;5052472;28;20226;-72
2021/12/09 01:59:04;;;;;;;18.38;17.17;;;4.60;95.40;;;;;;5052405;28;20558;-72
2021/12/09 02:01:32;;;;;;;19.48;18.17;;;4.70;94.90;;;;;;5052371;28;20235;-73
2021/12/09 02:04:00;;;;;;;298.70;43.08;;;4.70;94.20;;;;;;5052328;28;20223;-72
2021/12/09 02:06:28;;;;;;;17.92;16.88;;;4.70;95.20;;;;;;5052525;28;20192;-72
2021/12/09 02:08:57;;;;;;;18.83;17.33;;;4.60;96.60;;;;;;5052335;28;20646;-72
2021/12/09 02:11:24;;;;;;;388.20;52.55;;;4.60;96.30;;;;;;5052279;28;20205;-73
2021/12/09 02:13:55;;;;;;;19.25;17.98;;;4.50;98.70;;;;;;5052120;28;20243;-72
2021/12/09 02:16:23;;;;;;;19.13;17.73;;;4.50;96.60;;;;;;5052287;28;20708;-72
2021/12/09 02:18:50;;;;;;;17.85;16.88;;;4.50;95.70;;;;;;5052322;28;20208;-73
2021/12/09 02:21:21;;;;;;;19.45;18.25;;;4.30;95.10;;;;;;5052333;28;20199;-72
2021/12/09 02:23:50;;;;;;;20.17;18.98;;;4.20;94.70;;;;;;5052063;28;20226;-72
2021/12/09 02:26:21;;;;;;;19.05;17.92;;;4.20;95.00;;;;;;5052365;28;20189;-72
2021/12/09 02:28:49;;;;;;;19.73;18.48;;;4.30;94.50;;;;;;5052272;28;20207;-72
2021/12/09 02:31:17;;;;;;;19.23;18.13;;;4.20;95.00;;;;;;5052326;28;20211;-72
2021/12/09 02:33:44;;;;;;;181.75;33.78;;;4.30;94.80;;;;;;5051828;28;20383;-72
2021/12/09 02:36:11;;;;;;;19.40;18.05;;;4.30;95.00;;;;;;5054121;28;20224;-72
2021/12/09 02:38:44;;;;;;;20.20;18.90;;;4.30;95.50;;;;;;5055625;28;20594;-72
2021/12/09 02:41:15;;;;;;;896.45;121.03;;;4.40;95.10;;;;;;5055880;28;20204;-72
2021/12/09 02:43:42;;;;;;;21.27;19.30;;;4.40;96.00;;;;;;5055611;28;20722;-72
2021/12/09 02:46:09;;;;;;;21.05;19.15;;;4.40;96.00;;;;;;5055813;28;20570;-72
2021/12/09 02:48:37;;;;;;;19.98;18.67;;;4.40;95.60;;;;;;5055918;28;20197;-72
2021/12/09 02:51:06;;;;;;;20.08;18.77;;;4.40;94.90;;;;;;5055712;28;20287;-72
2021/12/09 02:53:34;;;;;;;20.52;19.23;;;4.40;94.90;;;;;;5055615;28;20213;-72
2021/12/09 02:56:03;;;;;;;20.95;19.45;;;4.40;94.70;;;;;;5055716;28;20694;-72
2021/12/09 02:58:30;;;;;;;20.85;19.27;;;4.40;94.90;;;;;;5055611;28;20287;-72
2021/12/09 03:01:01;;;;;;;23.05;20.02;;;4.40;94.90;;;;;;5055664;28;20193;-72
2021/12/09 03:03:28;;;;;;;20.15;18.65;;;4.50;95.00;;;;;;5055402;28;20649;-72
2021/12/09 03:05:56;;;;;;;297.48;47.85;;;4.50;94.70;;;;;;5055544;28;20197;-73
2021/12/09 03:08:33;;;;;;;20.90;18.98;;;4.60;95.00;;;;;;5055568;28;20201;-72
2021/12/09 03:11:04;;;;;;;19.48;18.23;;;4.60;96.10;;;;;;5055423;28;20197;-72
2021/12/09 03:13:31;;;;;;;20.98;19.27;;;4.80;96.30;;;;;;5055271;28;20694;-72
2021/12/09 03:15:59;;;;;;;21.58;19.60;;;4.80;95.20;;;;;;5055214;28;20223;-72
2021/12/09 03:18:26;;;;;;;20.48;18.67;;;4.80;94.80;;;;;;5055400;28;20208;-72
2021/12/09 03:20:53;;;;;;;19.67;18.38;;;4.80;93.80;;;;;;5055183;28;20287;-72
2021/12/09 03:23:22;;;;;;;21.10;19.23;;;4.90;94.10;;;;;;5055015;28;20733;-72
2021/12/09 03:25:49;;;;;;;20.20;18.70;;;4.80;93.90;;;;;;5055140;28;20291;-72
2021/12/09 03:28:18;;;;;;;20.58;19.08;;;4.80;93.70;;;;;;5055208;28;20201;-72
2021/12/09 03:30:45;;;;;;;20.45;18.90;;;4.90;93.90;;;;;;5055051;28;20212;-72
2021/12/09 03:33:12;;;;;;;20.23;18.35;;;4.90;93.10;;;;;;5054780;28;20224;-72
2021/12/09 03:35:39;;;;;;;20.42;18.95;;;5.00;93.20;;;;;;5054964;28;20654;-72
2021/12/09 03:38:06;;;;;;;20.23;18.80;;;5.00;92.80;;;;;;5055020;28;20203;-72
2021/12/09 03:40:33;;;;;;;22.95;20.70;;;5.00;93.00;;;;;;5054409;28;20213;-72
2021/12/09 03:43:00;;;;;;;20.95;19.27;;;5.00;92.50;;;;;;5054610;28;20681;-72
2021/12/09 03:45:28;;;;;;;20.98;19.02;;;5.00;92.80;;;;;;5054481;28;20291;-72
2021/12/09 03:47:55;;;;;;;20.35;18.60;;;4.90;92.20;;;;;;5054188;28;20199;-72
2021/12/09 03:50:22;;;;;;;21.98;19.90;;;5.00;92.20;;;;;;5054968;28;20225;-73
2021/12/09 03:52:49;;;;;;;19.52;18.20;;;5.00;92.10;;;;;;5054522;28;20203;-73
2021/12/09 03:55:16;;;;;;;22.92;20.95;;;4.90;92.50;;;;;;5054748;28;20196;-72
2021/12/09 03:57:44;;;;;;;22.05;20.20;;;4.90;92.00;;;;;;5054391;28;20227;-72
2021/12/09 04:00:13;;;;;;;20.63;18.92;;;4.90;92.50;;;;;;5054607;28;20197;-72
2021/12/09 04:02:41;;;;;;;21.40;19.65;;;4.90;92.00;;;;;;5054908;28;20201;-72
2021/12/09 04:05:09;;;;;;;22.90;21.25;;;5.00;91.80;;;;;;5054614;28;20200;-72
2021/12/09 04:07:36;;;;;;;22.83;21.20;;;5.00;91.40;;;;;;5054467;28;20654;-73
2021/12/09 04:10:04;;;;;;;22.25;20.50;;;4.90;92.00;;;;;;5054284;28;20204;-72
2021/12/09 04:12:31;;;;;;;22.17;20.67;;;4.90;91.80;;;;;;5054121;28;20283;-72
2021/12/09 04:14:58;;;;;;;23.02;21.10;;;5.00;91.70;;;;;;5054160;28;20227;-72
2021/12/09 04:17:25;;;;;;;22.63;20.73;;;4.90;91.70;;;;;;5054206;28;20216;-72
2021/12/09 04:19:53;;;;;;;22.38;20.70;;;5.00;91.70;;;;;;5054234;28;20203;-72
2021/12/09 04:22:21;;;;;;;22.60;21.00;;;5.00;91.50;;;;;;5054098;28;20247;-72
2021/12/09 04:24:50;;;;;;;22.60;21.05;;;5.00;91.00;;;;;;5053911;28;20357;-72
2021/12/09 04:27:18;;;;;;;130.43;31.67;;;5.00;93.60;;;;;;5054180;28;20204;-72
2021/12/09 04:29:44;;;;;;;22.52;20.92;;;4.90;94.10;;;;;;5053946;28;20192;-72
2021/12/09 04:32:11;;;;;;;271.08;45.28;;;4.90;97.00;;;;;;5053919;28;20197;-72
2021/12/09 04:34:38;;;;;;;821.38;115.43;;;4.90;96.40;;;;;;5053698;28;20217;-72
2021/12/09 04:37:07;;;;;;;764.90;99.10;;;4.80;96.50;;;;;;5053684;28;20216;-72
2021/12/09 04:39:34;;;;;;;22.55;20.30;;;4.80;97.80;;;;;;5053470;28;20203;-72
2021/12/09 04:42:01;;;;;;;22.10;19.98;;;4.80;95.20;;;;;;5053784;28;20208;-73
2021/12/09 04:44:27;;;;;;;23.35;21.55;;;4.80;94.40;;;;;;5053103;28;20227;-72
2021/12/09 04:46:56;;;;;;;21.85;20.08;;;4.70;93.90;;;;;;5053842;28;20279;-72
2021/12/09 04:49:23;;;;;;;21.60;19.92;;;4.80;93.40;;;;;;5053647;28;20732;-72
2021/12/09 04:51:50;;;;;;;21.52;19.35;;;4.80;92.90;;;;;;5053503;28;20196;-72
2021/12/09 04:54:18;;;;;;;21.15;19.45;;;4.80;93.50;;;;;;5053332;28;20314;-72
2021/12/09 04:56:46;;;;;;;22.38;20.63;;;4.90;93.20;;;;;;5053410;28;20708;-72
2021/12/09 04:59:13;;;;;;;209.90;34.88;;;5.00;93.70;;;;;;5052371;28;20200;-72
2021/12/09 05:01:44;;;;;;;21.15;19.65;;;5.00;93.00;;;;;;5053471;28;20192;-72
2021/12/09 05:04:10;;;;;;;21.30;19.30;;;5.00;94.30;;;;;;5053119;28;20268;-72
2021/12/09 05:06:37;;;;;;;21.02;19.10;;;5.00;95.10;;;;;;5053375;28;20279;-72
2021/12/09 05:09:10;;;;;;;19.73;18.23;;;5.00;95.10;;;;;;5053256;28;20200;-72
2021/12/09 05:11:48;;;;;;;21.08;19.77;;;4.90;94.40;;;;;;5053371;28;20209;-72
2021/12/09 05:14:16;;;;;;;20.70;19.00;;;4.90;93.40;;;;;;5053018;28;20220;-72
2021/12/09 05:16:44;;;;;;;20.60;19.10;;;5.00;92.90;;;;;;5053059;28;20224;-72
2021/12/09 05:19:11;;;;;;;21.13;19.23;;;4.90;92.20;;;;;;5052996;28;20207;-72
2021/12/09 05:21:39;;;;;;;21.25;19.75;;;4.90;91.50;;;;;;5053077;28;20566;-72
2021/12/09 05:24:06;;;;;;;22.05;20.30;;;4.80;91.60;;;;;;5052735;28;20752;-72
2021/12/09 05:26:40;;;;;;;20.95;19.48;;;4.80;91.90;;;;;;5053075;28;20417;-72
2021/12/09 05:29:08;;;;;;;1293.32;175.20;;;4.80;95.70;;;;;;5053002;28;20236;-72
2021/12/09 05:34:20;;;;;;;1999.90;406.98;;;4.80;94.90;;;;;;5052739;28;20220;-72
2021/12/09 05:36:47;;;;;;;21.35;19.92;;;4.80;97.10;;;;;;5052752;28;20222;-72
2021/12/09 05:39:15;;;;;;;22.85;20.80;;;4.80;97.10;;;;;;5052451;28;20200;-72
2021/12/09 05:41:43;;;;;;;21.27;19.67;;;4.80;96.00;;;;;;5052608;28;20296;-72
2021/12/09 05:44:12;;;;;;;20.42;18.92;;;4.80;95.50;;;;;;5052070;28;20227;-72
2021/12/09 05:46:42;;;;;;;36.88;23.20;;;4.70;95.10;;;;;;5052796;28;20192;-72
2021/12/09 05:49:09;;;;;;;21.63;19.83;;;4.70;95.00;;;;;;5052640;28;20196;-72
2021/12/09 05:51:37;;;;;;;24.52;19.70;;;4.80;96.20;;;;;;5052628;28;20193;-72
2021/12/09 05:54:05;;;;;;;21.17;19.23;;;4.90;96.20;;;;;;5052326;28;20216;-72
2021/12/09 05:56:32;;;;;;;21.85;20.15;;;4.90;95.80;;;;;;5052576;28;20566;-72
2021/12/09 05:58:59;;;;;;;215.57;39.28;;;4.90;94.90;;;;;;5052445;28;20200;-72
2021/12/09 06:01:28;;;;;;;390.00;60.30;;;4.80;96.20;;;;;;5052563;28;20197;-72
2021/12/09 06:03:55;;;;;;;21.33;19.80;;;4.80;96.90;;;;;;5052243;28;20254;-72
2021/12/09 06:06:22;;;;;;;22.30;20.55;;;4.80;96.70;;;;;;5052671;28;20207;-72
2021/12/09 06:08:49;;;;;;;21.42;20.00;;;4.80;95.80;;;;;;5052387;28;20200;-72
2021/12/09 06:11:16;;;;;;;21.13;19.65;;;4.80;95.40;;;;;;5054639;28;20632;-72
2021/12/09 06:13:46;;;;;;;23.15;21.40;;;4.70;94.60;;;;;;5056363;28;20226;-72
2021/12/09 06:16:13;;;;;;;23.58;21.70;;;4.60;95.00;;;;;;5056646;28;20753;-72
2021/12/09 06:18:41;;;;;;;22.33;20.27;;;4.70;95.30;;;;;;5056521;28;20217;-73
2021/12/09 06:21:08;;;;;;;26.85;20.85;;;4.70;98.10;;;;;;5056273;28;20287;-72
2021/12/09 06:23:35;;;;;;;95.07;27.48;;;4.70;97.00;;;;;;5056182;28;20223;-73
2021/12/09 06:26:02;;;;;;;21.70;20.10;;;4.60;96.90;;;;;;5056612;28;20223;-73
2021/12/09 06:28:29;;;;;;;44.17;22.48;;;4.60;97.20;;;;;;5056269;28;20287;-73
2021/12/09 06:30:56;;;;;;;21.13;19.30;;;4.60;98.60;;;;;;5056226;28;20720;-73
2021/12/09 06:33:23;;;;;;;22.02;20.05;;;4.60;98.50;;;;;;5055895;28;20222;-73
2021/12/09 06:35:51;;;;;;;21.17;19.40;;;4.60;97.80;;;;;;5056215;28;20197;-73
2021/12/09 06:38:18;;;;;;;20.85;19.55;;;4.50;96.60;;;;;;5056000;28;20217;-72
2021/12/09 06:40:46;;;;;;;20.83;19.40;;;4.50;96.10;;;;;;5055541;28;20208;-72
2021/12/09 06:43:13;;;;;;;20.55;18.88;;;4.50;95.80;;;;;;5055702;28;20590;-72
2021/12/09 06:45:41;;;;;;;19.58;18.27;;;4.50;95.60;;;;;;5055598;28;20640;-72
2021/12/09 06:48:08;;;;;;;22.38;20.33;;;4.60;94.90;;;;;;5055924;28;20280;-72
2021/12/09 06:50:35;;;;;;;22.98;20.08;;;4.50;94.30;;;;;;5055821;28;20204;-72
2021/12/09 06:53:04;;;;;;;22.73;21.20;;;4.60;93.80;;;;;;5055627;28;20555;-72
2021/12/09 06:55:31;;;;;;;22.60;20.90;;;4.60;93.50;;;;;;5055879;28;20196;-72
2021/12/09 06:57:58;;;;;;;22.02;20.27;;;4.60;93.40;;;;;;5055957;28;20223;-72
2021/12/09 07:00:29;;;;;;;21.23;19.77;;;4.60;93.50;;;;;;5055747;28;20658;-72
2021/12/09 07:02:57;;;;;;;22.23;20.63;;;4.60;92.90;;;;;;5055473;28;20203;-72
2021/12/09 07:05:27;;;;;;;22.45;21.13;;;4.60;93.70;;;;;;5055615;28;20193;-72
2021/12/09 07:07:54;;;;;;;22.60;20.80;;;4.70;93.00;;;;;;5055639;28;20657;-73
2021/12/09 07:10:24;;;;;;;22.35;20.70;;;4.70;92.50;;;;;;5055507;28;20204;-72
2021/12/09 07:12:51;;;;;;;21.58;20.17;;;4.70;93.40;;;;;;5055193;28;20204;-73
2021/12/09 07:15:18;;;;;;;24.65;20.95;;;4.60;93.20;;;;;;5055532;28;20291;-73
2021/12/09 07:17:45;;;;;;;21.75;20.30;;;4.70;91.70;;;;;;5055205;28;20732;-72
2021/12/09 07:20:16;;;;;;;630.08;79.75;;;4.70;92.10;;;;;;5055278;28;20202;-72
2021/12/09 07:22:45;;;;;;;19.80;18.60;;;4.70;91.80;;;;;;5054150;28;20193;-72
2021/12/09 07:25:12;;;;;;;21.58;19.77;;;4.70;92.60;;;;;;5055365;28;20666;-72
2021/12/09 07:27:40;;;;;;;22.60;20.88;;;4.70;91.60;;;;;;5055273;28;20196;-72
2021/12/09 07:30:09;;;;;;;22.85;21.30;;;4.70;91.30;;;;;;5055072;28;20192;-72
2021/12/09 07:32:36;;;;;;;23.35;21.45;;;4.70;90.90;;;;;;5055030;28;20203;-72
2021/12/09 07:35:05;;;;;;;25.25;23.25;;;4.80;90.20;;;;;;5055060;28;20221;-72
2021/12/09 07:37:33;;;;;;;23.10;21.52;;;4.70;90.00;;;;;;5055149;28;20220;-72
2021/12/09 07:39:59;;;;;;;36.30;23.70;;;4.70;90.10;;;;;;5054670;28;20687;-72
2021/12/09 07:42:26;;;;;;;23.77;21.75;;;4.60;90.60;;;;;;5054763;28;20231;-72
2021/12/09 07:44:55;;;;;;;24.75;22.83;;;4.60;90.40;;;;;;5054304;28;20216;-72
2021/12/09 07:47:21;;;;;;;26.83;24.65;;;4.70;90.40;;;;;;5054956;28;20289;-72
2021/12/09 07:49:48;;;;;;;24.48;22.60;;;4.70;90.30;;;;;;5054758;28;20196;-72
2021/12/09 07:52:15;;;;;;;22.90;20.90;;;4.60;90.50;;;;;;5054816;28;20200;-72
2021/12/09 07:54:42;;;;;;;24.35;22.55;;;4.60;91.10;;;;;;5054627;28;20213;-72
2021/12/09 07:57:09;;;;;;;22.75;21.00;;;4.60;90.90;;;;;;5054547;28;20192;-72
2021/12/09 07:59:36;;;;;;;22.48;20.88;;;4.60;90.60;;;;;;5054561;28;20192;-72
2021/12/09 08:02:05;;;;;;;23.17;21.58;;;4.70;90.90;;;;;;5054601;28;20225;-72
2021/12/09 08:04:32;;;;;;;22.10;20.80;;;4.60;90.50;;;;;;5054407;28;20246;-72
2021/12/09 08:06:59;;;;;;;23.98;22.10;;;4.70;90.80;;;;;;5054499;28;20614;-72
2021/12/09 08:09:27;;;;;;;23.40;21.60;;;4.80;90.50;;;;;;5054398;28;20199;-72
2021/12/09 08:11:55;;;;;;;22.98;20.90;;;4.80;90.20;;;;;;5054291;28;20201;-72
2021/12/09 08:14:22;;;;;;;22.45;20.95;;;4.70;90.10;;;;;;5054099;28;20564;-72
2021/12/09 08:16:57;;;;;;;21.95;20.20;;;4.80;90.60;;;;;;5054285;28;20696;-72
2021/12/09 08:19:25;;;;;;;21.85;20.25;;;4.90;90.40;;;;;;5054206;28;20226;-72
2021/12/09 08:21:53;;;;;;;20.65;19.25;;;5.00;90.60;;;;;;5054312;28;20203;-72
2021/12/09 08:24:20;;;;;;;21.48;20.13;;;5.00;90.50;;;;;;5053848;28;20753;-72
2021/12/09 08:26:47;;;;;;;22.15;20.63;;;5.00;90.60;;;;;;5054082;28;20203;-72
2021/12/09 08:29:14;;;;;;;21.20;19.70;;;5.10;90.20;;;;;;5054047;28;20651;-72
2021/12/09 08:31:40;;;;;;;22.65;20.65;;;5.20;89.30;;;;;;5053978;28;20204;-72
2021/12/09 08:34:07;;;;;;;22.23;20.70;;;5.30;87.90;;;;;;5053415;28;20698;-72
2021/12/09 08:36:35;;;;;;;22.80;21.10;;;5.40;86.70;;;;;;5054021;28;20192;-72
2021/12/09 08:39:04;;;;;;;22.70;21.23;;;5.40;88.90;;;;;;5053340;28;20307;-72
2021/12/09 08:41:31;;;;;;;21.13;19.73;;;5.50;87.50;;;;;;5053671;28;20223;-72
2021/12/09 08:43:58;;;;;;;21.77;20.30;;;5.50;88.30;;;;;;5053435;28;20217;-72
2021/12/09 08:46:24;;;;;;;21.90;20.10;;;5.50;86.70;;;;;;5053407;28;20208;-72
2021/12/09 08:48:53;;;;;;;23.42;21.60;;;5.70;86.10;;;;;;5053705;28;20197;-72
2021/12/09 08:51:19;;;;;;;23.10;21.15;;;5.80;85.80;;;;;;5053568;28;20236;-72
2021/12/09 08:53:48;;;;;;;23.75;21.63;;;5.80;85.80;;;;;;5053358;28;20213;-72
2021/12/09 08:56:15;;;;;;;24.77;22.85;;;5.80;86.40;;;;;;5053552;28;20203;-72
2021/12/09 08:58:42;;;;;;;24.60;22.70;;;5.90;87.40;;;;;;5053514;28;20230;-72
2021/12/09 09:01:12;;;;;;;24.02;22.20;;;6.00;86.50;;;;;;5053389;28;20204;-72
2021/12/09 09:03:38;;;;;;;22.70;21.13;;;6.20;85.80;;;;;;5053162;28;20800;-72
2021/12/09 09:06:05;;;;;;;24.90;23.00;;;6.20;85.60;;;;;;5053533;28;20226;-73
2021/12/09 09:08:32;;;;;;;23.35;21.92;;;6.20;84.70;;;;;;5053263;28;20196;-72
2021/12/09 09:11:01;;;;;;;22.98;21.35;;;6.20;84.10;;;;;;5053279;28;20193;-72
2021/12/09 09:13:28;;;;;;;25.60;24.10;;;6.30;83.90;;;;;;5052958;28;20217;-72
2021/12/09 09:15:55;;;;;;;23.08;21.60;;;6.40;83.10;;;;;;5053287;28;20197;-73
2021/12/09 09:18:23;;;;;;;21.33;20.02;;;6.40;83.40;;;;;;5052988;28;20224;-72
2021/12/09 09:20:51;;;;;;;24.42;22.80;;;6.30;83.60;;;;;;5053114;28;20203;-72
2021/12/09 09:23:22;;;;;;;23.52;21.92;;;6.40;83.90;;;;;;5052777;28;20601;-73
2021/12/09 09:25:49;;;;;;;23.48;21.88;;;6.40;83.60;;;;;;5053129;28;20200;-72
2021/12/09 09:28:19;;;;;;;24.52;23.02;;;6.50;83.40;;;;;;5053014;28;20193;-72
2021/12/09 09:30:53;;;;;;;24.40;23.00;;;6.60;82.60;;;;;;5052921;28;20293;-72
2021/12/09 09:33:21;;;;;;;25.25;23.40;;;6.70;82.00;;;;;;5052583;28;20650;-72
2021/12/09 09:35:49;;;;;;;23.42;22.15;;;6.70;82.00;;;;;;5052969;28;20696;-73
2021/12/09 09:38:17;;;;;;;23.50;22.00;;;6.70;82.60;;;;;;5052839;28;20216;-73
2021/12/09 09:40:50;;;;;;;25.05;23.35;;;6.80;82.60;;;;;;5052069;28;20758;-73
2021/12/09 09:43:29;;;;;;;23.55;22.25;;;6.90;81.60;;;;;;5052517;28;20220;-72
2021/12/09 09:45:59;;;;;;;24.45;22.80;;;6.70;81.80;;;;;;5051941;28;20215;-72
2021/12/09 09:48:26;;;;;;;25.50;23.60;;;6.80;81.70;;;;;;5052735;28;20284;-72
2021/12/09 09:50:53;;;;;;;23.52;22.02;;;6.70;81.90;;;;;;5052565;28;20200;-72
2021/12/09 09:53:20;;;;;;;23.83;22.08;;;6.60;82.80;;;;;;5052443;28;20590;-72
2021/12/09 09:55:47;;;;;;;23.98;22.33;;;6.70;83.50;;;;;;5052602;28;20200;-73
2021/12/09 09:58:15;;;;;;;24.50;23.10;;;6.70;84.30;;;;;;5052482;28;20303;-73
2021/12/09 10:00:43;;;;;;;28.05;26.00;;;6.70;82.50;;;;;;5052612;28;20684;-72
2021/12/09 10:03:17;;;;;;;25.13;23.23;;;6.80;81.90;;;;;;5052230;28;20693;-73
2021/12/09 10:05:46;;;;;;;25.65;23.95;;;6.90;81.50;;;;;;5052480;28;20211;-73
2021/12/09 10:08:14;;;;;;;23.85;22.35;;;6.80;80.70;;;;;;5052443;28;20285;-73
2021/12/09 10:10:41;;;;;;;25.25;23.38;;;6.90;80.50;;;;;;5052341;28;20209;-72
2021/12/09 10:13:10;;;;;;;23.55;22.15;;;6.90;81.00;;;;;;5052119;28;20251;-73
2021/12/09 10:15:43;;;;;;;25.20;23.50;;;6.90;81.50;;;;;;5052469;28;20204;-73
2021/12/09 10:18:13;;;;;;;23.80;22.30;;;6.90;82.20;;;;;;5052348;28;20260;-73
2021/12/09 10:20:46;;;;;;;23.25;21.85;;;7.00;83.20;;;;;;5052350;28;20288;-72
2021/12/09 10:23:28;;;;;;;24.00;22.60;;;7.00;86.60;;;;;;5052036;28;20308;-73
2021/12/09 10:26:26;;;;;;;25.15;23.30;;;7.10;83.60;;;;;;5052441;28;20200;-73
2021/12/09 10:29:02;;;;;;;24.35;22.73;;;7.20;80.40;;;;;;5010502;28;20198;-72
2021/12/09 10:31:33;;;;;;;25.33;23.73;;;7.20;80.50;;;;;;5045422;28;20231;-73
2021/12/09 10:34:32;;;;;;;24.25;22.85;;;7.30;80.30;;;;;;5052082;28;20267;-72
2021/12/09 10:37:03;;;;;;;23.55;22.17;;;7.40;80.70;;;;;;5052248;28;20200;-72
2021/12/09 10:39:42;;;;;;;23.67;22.38;;;7.40;80.60;;;;;;5051783;28;20216;-73
2021/12/09 10:42:12;;;;;;;24.00;22.60;;;7.40;80.30;;;;;;5052074;28;20303;-73
2021/12/09 10:44:46;;;;;;;25.08;23.58;;;7.30;78.90;;;;;;5051647;28;20563;-73
2021/12/09 10:47:21;;;;;;;26.98;24.88;;;7.20;79.30;;;;;;5052133;28;20284;-73
2021/12/09 10:50:06;;;;;;;25.50;23.80;;;7.30;79.80;;;;;;5052140;28;20188;-73
2021/12/09 10:52:40;;;;;;;23.23;21.83;;;7.20;80.60;;;;;;5052066;28;20192;-72
2021/12/09 10:55:10;;;;;;;25.08;23.02;;;7.30;79.50;;;;;;5052042;28;20216;-72
2021/12/09 10:57:37;;;;;;;23.90;22.33;;;7.30;79.30;;;;;;5054729;28;20679;-72
2021/12/09 11:00:20;;;;;;;23.30;21.55;;;7.30;78.70;;;;;;5055642;28;20227;-73
2021/12/09 11:03:03;;;;;;;23.10;21.70;;;7.30;78.20;;;;;;5055426;28;20672;-73
2021/12/09 11:05:33;;;;;;;23.75;22.45;;;7.30;78.60;;;;;;5055629;28;20752;-73
2021/12/09 11:08:24;;;;;;;22.98;21.42;;;7.20;77.80;;;;;;5055786;28;20204;-73
2021/12/09 11:10:58;;;;;;;24.40;22.90;;;7.20;79.50;;;;;;5055630;28;20207;-72
2021/12/09 11:13:26;;;;;;;22.77;21.25;;;7.40;81.40;;;;;;5055189;28;20223;-72
2021/12/09 11:15:55;;;;;;;24.50;23.10;;;7.50;81.50;;;;;;5055693;28;20209;-73
2021/12/09 11:18:43;;;;;;;21.90;20.80;;;7.60;79.40;;;;;;5055434;28;20682;-73
2021/12/09 11:21:15;;;;;;;23.17;21.80;;;7.80;78.20;;;;;;5055362;28;20330;-73
2021/12/09 11:23:45;;;;;;;23.67;22.27;;;7.80;77.70;;;;;;5055079;28;20212;-73
2021/12/09 11:26:36;;;;;;;23.83;22.35;;;7.90;78.60;;;;;;5055361;28;20196;-73
2021/12/09 11:29:08;;;;;;;23.73;22.42;;;8.00;78.00;;;;;;5055388;28;20197;-73
2021/12/09 11:31:46;;;;;;;23.33;22.02;;;8.00;78.90;;;;;;5055233;28;20209;-73
2021/12/09 11:34:16;;;;;;;23.73;22.25;;;8.20;76.90;;;;;;5054917;28;20307;-73
2021/12/09 11:36:48;;;;;;;24.70;23.20;;;8.20;78.70;;;;;;5055136;28;20196;-73
2021/12/09 11:39:20;;;;;;;24.48;22.48;;;8.30;77.40;;;;;;5054708;28;20219;-72
2021/12/09 11:41:48;;;;;;;22.42;21.23;;;8.30;76.80;;;;;;5055099;28;20230;-73
2021/12/09 11:44:16;;;;;;;24.63;23.08;;;8.20;79.30;;;;;;5054374;28;20267;-72
2021/12/09 11:46:46;;;;;;;24.20;22.50;;;8.30;77.70;;;;;;5054850;28;20211;-73
2021/12/09 11:49:13;;;;;;;23.70;22.30;;;8.40;78.60;;;;;;5054779;28;20672;-73
2021/12/09 11:51:42;;;;;;;25.40;23.70;;;8.40;76.50;;;;;;5054840;28;20218;-73
2021/12/09 11:54:11;;;;;;;23.90;22.58;;;8.50;74.80;;;;;;5054502;28;20216;-73
2021/12/09 11:56:56;;;;;;;23.80;22.42;;;8.50;75.00;;;;;;5054754;28;20200;-73
2021/12/09 12:11:06;;;;;;;24.13;22.58;;;8.00;74.10;;;;;;5054187;28;20195;-72
2021/12/09 12:11:17;;;;;;;24.40;22.83;;;7.70;75.40;;;;;;5054367;28;20196;-73
2021/12/09 12:13:50;;;;;;;24.17;22.63;;;7.70;75.40;;;;;;5053957;28;20225;-73
2021/12/09 12:16:32;;;;;;;26.25;24.38;;;7.70;75.50;;;;;;5054398;28;20196;-73
2021/12/09 12:19:05;;;;;;;24.48;22.98;;;7.80;75.50;;;;;;5054261;28;20224;-73
2021/12/09 12:25:06;;;;;;;24.30;22.63;;;7.60;75.00;;;;;;5054031;28;20802;-73
2021/12/09 12:27:56;;;;;;;24.17;22.77;;;7.50;76.10;;;;;;5054185;28;20258;-73
2021/12/09 12:33:49;;;;;;;24.50;22.67;;;7.80;76.00;;;;;;5053357;28;20238;-73
2021/12/09 12:39:19;;;;;;;23.70;22.10;;;7.80;76.30;;;;;;5053267;28;20773;-73
2021/12/09 12:42:02;;;;;;;24.65;22.75;;;7.80;76.40;;;;;;5053741;28;20204;-72
2021/12/09 12:44:31;;;;;;;24.10;22.55;;;7.90;79.10;;;;;;5053315;28;20692;-73
2021/12/09 12:47:08;;;;;;;24.50;22.88;;;7.90;75.00;;;;;;5053862;28;20575;-73
2021/12/09 12:49:37;;;;;;;24.20;22.60;;;8.00;76.90;;;;;;5053794;28;20199;-73
2021/12/09 12:52:09;;;;;;;24.10;22.52;;;7.90;72.30;;;;;;5053714;28;20204;-72
2021/12/09 12:54:52;;;;;;;25.63;23.73;;;7.70;72.20;;;;;;5053526;28;20306;-72
2021/12/09 12:57:31;;;;;;;24.50;22.88;;;7.40;72.30;;;;;;5053597;28;20254;-73
2021/12/09 13:00:11;;;;;;;24.88;23.17;;;7.20;73.60;;;;;;5053547;28;20223;-73
2021/12/09 13:05:51;;;;;;;24.38;22.70;;;6.90;74.70;;;;;;5053409;28;20541;-72
2021/12/09 13:08:46;;;;;;;24.70;22.95;;;6.70;75.10;;;;;;5053347;28;20215;-73
2021/12/09 13:11:20;;;;;;;24.67;22.92;;;6.80;76.00;;;;;;5053317;28;20212;-73